createdAt,value
2016-08-04T00:00:10.968Z,0
2016-08-04T00:01:11.341Z,0
2016-08-04T00:02:12.257Z,0
2016-08-04T00:03:12.798Z,0
2016-08-04T00:04:12.745Z,0
2016-08-04T00:05:12.459Z,0
2016-08-04T00:06:13.141Z,0
2016-08-04T00:07:13.073Z,0
2016-08-04T00:08:10.893Z,0
2016-08-04T00:09:12.332Z,0
2016-08-04T00:10:12.377Z,0
2016-08-04T00:11:11.987Z,0
2016-08-04T00:12:12.326Z,0
2016-08-04T00:13:12.291Z,0
2016-08-04T00:14:13.829Z,0
2016-08-04T00:15:14.156Z,0
2016-08-04T00:16:12.173Z,0
2016-08-04T00:17:12.360Z,0
2016-08-04T00:18:12.744Z,0
2016-08-04T00:19:12.271Z,0
2016-08-04T00:20:15.793Z,0
2016-08-04T00:21:12.114Z,0
2016-08-04T00:22:13.773Z,0
2016-08-04T00:23:12.233Z,0
2016-08-04T00:24:13.566Z,0
2016-08-04T00:25:12.856Z,0
2016-08-04T00:26:12.967Z,0
2016-08-04T00:27:13.254Z,0
2016-08-04T00:28:12.843Z,0
2016-08-04T00:29:11.640Z,0
2016-08-04T00:30:13.508Z,0
2016-08-04T00:31:13.486Z,0
2016-08-04T00:32:12.985Z,0
2016-08-04T00:33:12.524Z,0
2016-08-04T00:34:15.588Z,0
2016-08-04T00:35:14.407Z,0
2016-08-04T00:36:13.287Z,0
2016-08-04T00:37:12.130Z,0
2016-08-04T00:38:12.325Z,0
2016-08-04T00:39:12.564Z,0
2016-08-04T00:40:14.868Z,0
2016-08-04T00:41:12.354Z,0
2016-08-04T00:42:12.236Z,0
2016-08-04T00:43:12.492Z,0
2016-08-04T00:44:13.907Z,0
2016-08-04T00:45:13.274Z,0
2016-08-04T00:46:13.929Z,0
2016-08-04T00:47:11.769Z,0
2016-08-04T00:48:14.560Z,0
2016-08-04T00:49:13.972Z,0
2016-08-04T00:50:12.708Z,0
2016-08-04T00:51:14.496Z,0
2016-08-04T00:52:12.667Z,0
2016-08-04T00:53:13.291Z,0
2016-08-04T00:54:13.174Z,0
2016-08-04T00:55:12.698Z,0
2016-08-04T00:56:12.931Z,0
2016-08-04T00:57:13.828Z,0
2016-08-04T00:58:12.909Z,0
2016-08-04T00:59:13.910Z,0
2016-08-04T01:00:14.463Z,0
2016-08-04T01:01:13.657Z,0
2016-08-04T01:02:14.316Z,0
2016-08-04T01:03:14.254Z,0
2016-08-04T01:04:14.485Z,0
2016-08-04T01:05:17.072Z,0
2016-08-04T01:06:14.882Z,0
2016-08-04T01:07:14.912Z,0
2016-08-04T01:08:14.674Z,0
2016-08-04T01:09:14.522Z,0
2016-08-04T01:10:12.362Z,0
2016-08-04T01:11:13.733Z,0
2016-08-04T01:12:14.769Z,0
2016-08-04T01:13:13.238Z,0
2016-08-04T01:14:16.376Z,0
2016-08-04T01:15:15.180Z,0
2016-08-04T01:16:15.573Z,0
2016-08-04T01:17:14.022Z,0
2016-08-04T01:18:15.040Z,0
2016-08-04T01:19:15.288Z,0
2016-08-04T01:20:14.094Z,0
2016-08-04T01:21:14.898Z,0
2016-08-04T01:22:15.170Z,0
2016-08-04T01:23:14.174Z,0
2016-08-04T01:24:14.949Z,0
2016-08-04T01:25:14.076Z,0
2016-08-04T01:26:16.221Z,0
2016-08-04T01:27:14.623Z,0
2016-08-04T01:28:14.110Z,0
2016-08-04T01:29:17.057Z,0
2016-08-04T01:30:14.044Z,0
2016-08-04T01:31:16.343Z,0
2016-08-04T01:32:15.541Z,0
2016-08-04T01:33:14.365Z,0
2016-08-04T01:34:14.616Z,0
2016-08-04T01:35:14.683Z,0
2016-08-04T01:36:15.150Z,0
2016-08-04T01:37:14.272Z,0
2016-08-04T01:38:14.459Z,0
2016-08-04T01:39:13.490Z,0
2016-08-04T01:40:15.064Z,0
2016-08-04T01:41:13.934Z,0
2016-08-04T01:42:14.592Z,0
2016-08-04T01:43:15.454Z,0
2016-08-04T01:44:15.359Z,0
2016-08-04T01:45:15.052Z,0
2016-08-04T01:46:15.371Z,0
2016-08-04T01:47:16.407Z,0
2016-08-04T01:48:15.579Z,0
2016-08-04T01:49:15.099Z,0
2016-08-04T01:50:15.579Z,0
2016-08-04T01:51:14.936Z,0
2016-08-04T01:52:14.348Z,0
2016-08-04T01:53:15.081Z,0
2016-08-04T01:54:15.128Z,0
2016-08-04T01:55:16.057Z,0
2016-08-04T01:56:15.279Z,0
2016-08-04T01:57:15.710Z,0
2016-08-04T01:58:16.844Z,0
2016-08-04T01:59:15.785Z,0
2016-08-04T02:00:14.709Z,0
2016-08-04T02:01:20.840Z,0
2016-08-04T02:02:14.060Z,0
2016-08-04T02:03:14.782Z,0
2016-08-04T02:04:16.180Z,0
2016-08-04T02:05:15.614Z,0
2016-08-04T02:06:17.131Z,0
2016-08-04T02:07:16.431Z,0
2016-08-04T02:08:16.545Z,0
2016-08-04T02:09:15.615Z,0
2016-08-04T02:10:17.745Z,0
2016-08-04T02:11:15.491Z,0
2016-08-04T02:12:16.152Z,0
2016-08-04T02:13:16.533Z,0
2016-08-04T02:14:14.998Z,0
2016-08-04T02:15:15.878Z,0
2016-08-04T02:16:15.560Z,0
2016-08-04T02:17:14.726Z,0
2016-08-04T02:18:17.466Z,0
2016-08-04T02:19:16.853Z,0
2016-08-04T02:21:16.887Z,0
2016-08-04T02:22:17.630Z,0
2016-08-04T02:23:15.382Z,0
2016-08-04T02:24:16.417Z,0
2016-08-04T02:25:15.228Z,0
2016-08-04T02:26:16.905Z,0
2016-08-04T02:27:15.839Z,0
2016-08-04T02:28:15.449Z,0
2016-08-04T02:29:18.181Z,0
2016-08-04T02:30:17.942Z,0
2016-08-04T02:31:16.516Z,0
2016-08-04T02:32:15.555Z,0
2016-08-04T02:33:17.728Z,0
2016-08-04T02:34:15.115Z,0
2016-08-04T02:36:17.098Z,0
2016-08-04T02:37:15.208Z,0
2016-08-04T02:38:16.996Z,0
2016-08-04T02:39:16.147Z,0
2016-08-04T02:40:16.821Z,0
2016-08-04T02:41:16.130Z,0
2016-08-04T02:42:17.293Z,0
2016-08-04T02:43:16.434Z,0
2016-08-04T02:44:16.756Z,0
2016-08-04T02:45:14.916Z,0
2016-08-04T02:46:17.662Z,0
2016-08-04T02:47:17.135Z,0
2016-08-04T02:48:17.080Z,0
2016-08-04T02:49:17.342Z,0
2016-08-04T02:51:18.925Z,0
2016-08-04T02:52:17.532Z,0
2016-08-04T02:53:18.523Z,0
2016-08-04T02:54:18.811Z,0
2016-08-04T02:55:15.937Z,0
2016-08-04T02:56:17.942Z,0
2016-08-04T02:57:19.423Z,0
2016-08-04T02:58:17.743Z,0
2016-08-04T02:59:15.798Z,0
2016-08-04T03:00:18.794Z,0
2016-08-04T03:01:16.406Z,0
2016-08-04T03:02:15.575Z,0
2016-08-04T03:03:17.463Z,0
2016-08-04T03:04:17.093Z,0
2016-08-04T03:05:19.068Z,0
2016-08-04T03:06:17.078Z,0
2016-08-04T03:07:17.643Z,0
2016-08-04T03:08:17.524Z,0
2016-08-04T03:09:18.724Z,0
2016-08-04T03:10:16.604Z,0
2016-08-04T03:11:17.685Z,0
2016-08-04T03:12:18.952Z,0
2016-08-04T03:13:19.934Z,0
2016-08-04T03:14:17.847Z,0
2016-08-04T03:15:16.481Z,0
2016-08-04T03:16:18.088Z,0
2016-08-04T03:17:18.132Z,0
2016-08-04T03:18:15.914Z,0
2016-08-04T03:19:17.796Z,0
2016-08-04T03:20:16.514Z,0
2016-08-04T03:21:18.308Z,0
2016-08-04T03:22:19.154Z,0
2016-08-04T03:23:17.982Z,0
2016-08-04T03:24:17.732Z,0
2016-08-04T03:25:17.935Z,0
2016-08-04T03:26:19.354Z,0
2016-08-04T03:27:19.524Z,0
2016-08-04T03:28:16.393Z,0
2016-08-04T03:29:20.176Z,0
2016-08-04T03:30:16.975Z,0
2016-08-04T03:31:20.375Z,0
2016-08-04T03:32:19.105Z,0
2016-08-04T03:33:19.025Z,0
2016-08-04T03:34:17.772Z,0
2016-08-04T03:35:17.566Z,0
2016-08-04T03:36:17.843Z,0
2016-08-04T03:37:18.257Z,0
2016-08-04T03:38:19.253Z,0
2016-08-04T03:39:19.286Z,0
2016-08-04T03:40:18.980Z,0
2016-08-04T03:41:17.476Z,0
2016-08-04T03:42:17.611Z,0
2016-08-04T03:43:17.867Z,0
2016-08-04T03:44:19.616Z,0
2016-08-04T03:45:17.778Z,0
2016-08-04T03:46:17.798Z,5
2016-08-04T03:47:17.818Z,5
2016-08-04T03:48:18.206Z,5
2016-08-04T03:49:18.053Z,5
2016-08-04T03:50:17.719Z,5
2016-08-04T03:51:17.608Z,5
2016-08-04T03:52:17.730Z,5
2016-08-04T03:53:20.401Z,10
2016-08-04T03:54:17.581Z,15
2016-08-04T03:55:21.663Z,20
2016-08-04T03:56:19.558Z,25
2016-08-04T03:57:18.554Z,25
2016-08-04T03:58:19.223Z,25
2016-08-04T03:59:17.485Z,20
2016-08-04T04:00:18.610Z,20
2016-08-04T04:01:19.455Z,20
2016-08-04T04:02:17.463Z,20
2016-08-04T04:03:17.579Z,20
2016-08-04T04:04:18.314Z,20
2016-08-04T04:05:17.656Z,25
2016-08-04T04:06:20.360Z,30
2016-08-04T04:07:17.846Z,35
2016-08-04T04:08:18.902Z,35
2016-08-04T04:09:18.733Z,35
2016-08-04T04:10:19.459Z,35
2016-08-04T04:11:18.536Z,35
2016-08-04T04:12:20.251Z,35
2016-08-04T04:13:20.115Z,35
2016-08-04T04:14:19.538Z,35
2016-08-04T04:15:17.157Z,35
2016-08-04T04:16:19.645Z,30
2016-08-04T04:17:19.265Z,30
2016-08-04T04:18:17.746Z,35
2016-08-04T04:19:18.228Z,35
2016-08-04T04:20:19.325Z,35
2016-08-04T04:21:19.526Z,35
2016-08-04T04:22:18.125Z,30
2016-08-04T04:23:18.584Z,30
2016-08-04T04:24:18.996Z,25
2016-08-04T04:25:18.374Z,30
2016-08-04T04:26:18.013Z,35
2016-08-04T04:27:19.073Z,40
2016-08-04T04:28:17.640Z,40
2016-08-04T04:29:19.390Z,45
2016-08-04T04:30:17.130Z,55
2016-08-04T04:31:19.020Z,60
2016-08-04T04:32:17.119Z,60
2016-08-04T04:33:19.818Z,65
2016-08-04T04:34:19.232Z,65
2016-08-04T04:35:19.309Z,70
2016-08-04T04:36:19.104Z,80
2016-08-04T04:37:18.339Z,90
2016-08-04T04:38:19.470Z,95
2016-08-04T04:39:20.639Z,110
2016-08-04T04:40:20.117Z,120
2016-08-04T04:41:19.629Z,115
2016-08-04T04:42:20.078Z,115
2016-08-04T04:43:19.398Z,110
2016-08-04T04:44:19.077Z,115
2016-08-04T04:45:19.887Z,115
2016-08-04T04:46:20.622Z,120
2016-08-04T04:47:20.117Z,115
2016-08-04T04:48:20.277Z,100
2016-08-04T04:49:20.839Z,95
2016-08-04T04:50:18.206Z,105
2016-08-04T04:51:19.460Z,120
2016-08-04T04:52:18.857Z,140
2016-08-04T04:53:20.151Z,135
2016-08-04T04:54:19.534Z,125
2016-08-04T04:55:20.404Z,105
2016-08-04T04:56:21.332Z,95
2016-08-04T04:57:18.663Z,105
2016-08-04T04:58:21.189Z,115
2016-08-04T04:59:20.429Z,120
2016-08-04T05:00:20.635Z,125
2016-08-04T05:01:20.680Z,130
2016-08-04T05:02:20.018Z,125
2016-08-04T05:03:20.576Z,115
2016-08-04T05:04:19.249Z,105
2016-08-04T05:05:18.691Z,120
2016-08-04T05:06:18.449Z,135
2016-08-04T05:07:20.132Z,160
2016-08-04T05:08:20.257Z,185
2016-08-04T05:09:22.053Z,200
2016-08-04T05:10:19.444Z,200
2016-08-04T05:11:20.132Z,205
2016-08-04T05:12:20.581Z,205
2016-08-04T05:13:19.598Z,200
2016-08-04T05:14:21.790Z,200
2016-08-04T05:15:22.718Z,185
2016-08-04T05:16:21.572Z,180
2016-08-04T05:17:23.324Z,185
2016-08-04T05:18:20.508Z,175
2016-08-04T05:19:21.058Z,140
2016-08-04T05:20:20.378Z,135
2016-08-04T05:21:20.703Z,135
2016-08-04T05:22:21.328Z,150
2016-08-04T05:23:20.340Z,170
2016-08-04T05:24:19.217Z,180
2016-08-04T05:25:19.673Z,200
2016-08-04T05:26:19.867Z,215
2016-08-04T05:27:20.334Z,210
2016-08-04T05:28:21.694Z,225
2016-08-04T05:29:20.654Z,235
2016-08-04T05:30:19.913Z,255
2016-08-04T05:31:18.782Z,275
2016-08-04T05:32:21.181Z,315
2016-08-04T05:33:18.554Z,350
2016-08-04T05:34:20.304Z,365
2016-08-04T05:35:21.914Z,390
2016-08-04T05:36:19.969Z,390
2016-08-04T05:37:20.659Z,355
2016-08-04T05:38:20.908Z,340
2016-08-04T05:39:21.074Z,320
2016-08-04T05:40:20.269Z,305
2016-08-04T05:41:20.461Z,290
2016-08-04T05:42:21.453Z,275
2016-08-04T05:43:19.609Z,250
2016-08-04T05:44:21.127Z,225
2016-08-04T05:45:19.593Z,220
2016-08-04T05:46:21.562Z,220
2016-08-04T05:47:20.413Z,220
2016-08-04T05:48:20.623Z,205
2016-08-04T05:49:20.784Z,195
2016-08-04T05:50:23.997Z,205
2016-08-04T05:51:21.129Z,215
2016-08-04T05:52:21.438Z,215
2016-08-04T05:53:21.762Z,235
2016-08-04T05:54:23.086Z,240
2016-08-04T05:55:22.008Z,250
2016-08-04T05:56:21.165Z,260
2016-08-04T05:57:22.488Z,250
2016-08-04T05:58:21.729Z,240
2016-08-04T05:59:20.709Z,215
2016-08-04T06:00:22.026Z,235
2016-08-04T06:01:20.412Z,290
2016-08-04T06:02:24.517Z,345
2016-08-04T06:03:20.425Z,365
2016-08-04T06:04:20.779Z,390
2016-08-04T06:05:22.781Z,420
2016-08-04T06:07:21.227Z,470
2016-08-04T06:08:21.828Z,515
2016-08-04T06:09:21.403Z,560
2016-08-04T06:10:20.836Z,610
2016-08-04T06:11:21.889Z,610
2016-08-04T06:12:21.006Z,595
2016-08-04T06:13:23.324Z,610
2016-08-04T06:14:20.407Z,655
2016-08-04T06:15:21.076Z,695
2016-08-04T06:16:22.899Z,675
2016-08-04T06:17:23.119Z,590
2016-08-04T06:18:22.022Z,480
2016-08-04T06:19:21.159Z,415
2016-08-04T06:20:23.843Z,395
2016-08-04T06:22:23.687Z,395
2016-08-04T06:23:22.223Z,410
2016-08-04T06:24:22.638Z,430
2016-08-04T06:25:24.346Z,445
2016-08-04T06:26:22.675Z,435
2016-08-04T06:27:22.819Z,420
2016-08-04T06:28:23.050Z,420
2016-08-04T06:29:24.865Z,440
2016-08-04T06:30:25.803Z,420
2016-08-04T06:31:22.882Z,400
2016-08-04T06:32:21.502Z,400
2016-08-04T06:33:20.605Z,395
2016-08-04T06:34:22.579Z,405
2016-08-04T06:35:24.695Z,415
2016-08-04T06:37:22.949Z,395
2016-08-04T06:38:21.595Z,385
2016-08-04T06:39:20.766Z,390
2016-08-04T06:40:21.106Z,400
2016-08-04T06:41:22.874Z,410
2016-08-04T06:42:22.605Z,435
2016-08-04T06:43:22.987Z,455
2016-08-04T06:44:23.254Z,475
2016-08-04T06:45:22.648Z,505
2016-08-04T06:46:23.657Z,520
2016-08-04T06:47:22.653Z,510
2016-08-04T06:48:23.127Z,515
2016-08-04T06:49:23.203Z,525
2016-08-04T06:50:23.253Z,485
2016-08-04T06:52:22.401Z,330
2016-08-04T06:53:21.984Z,335
2016-08-04T06:54:22.386Z,375
2016-08-04T06:55:21.554Z,400
2016-08-04T06:56:22.393Z,445
2016-08-04T06:57:22.178Z,495
2016-08-04T06:58:22.551Z,540
2016-08-04T06:59:22.981Z,565
2016-08-04T07:00:23.536Z,550
2016-08-04T07:01:24.732Z,525
2016-08-04T07:02:25.751Z,485
2016-08-04T07:03:22.943Z,525
2016-08-04T07:04:24.801Z,610
2016-08-04T07:05:23.833Z,675
2016-08-04T07:07:25.274Z,670
2016-08-04T07:08:24.178Z,655
2016-08-04T07:09:24.654Z,665
2016-08-04T07:10:23.421Z,690
2016-08-04T07:11:23.168Z,675
2016-08-04T07:12:22.507Z,665
2016-08-04T07:13:22.427Z,705
2016-08-04T07:14:22.177Z,775
2016-08-04T07:15:23.329Z,870
2016-08-04T07:16:23.633Z,965
2016-08-04T07:17:22.765Z,1005
2016-08-04T07:18:22.168Z,1015
2016-08-04T07:19:22.957Z,1015
2016-08-04T07:20:24.434Z,995
2016-08-04T07:22:23.612Z,910
2016-08-04T07:23:23.647Z,880
2016-08-04T07:24:25.277Z,870
2016-08-04T07:25:23.875Z,875
2016-08-04T07:26:23.645Z,890
2016-08-04T07:27:23.338Z,895
2016-08-04T07:28:22.943Z,895
2016-08-04T07:29:25.161Z,895
2016-08-04T07:30:23.724Z,890
2016-08-04T07:31:24.283Z,850
2016-08-04T07:32:22.187Z,760
2016-08-04T07:33:23.869Z,685
2016-08-04T07:34:23.000Z,695
2016-08-04T07:35:24.252Z,760
2016-08-04T07:37:23.311Z,670
2016-08-04T07:38:24.948Z,625
2016-08-04T07:39:25.407Z,625
2016-08-04T07:40:23.956Z,680
2016-08-04T07:41:23.840Z,750
2016-08-04T07:42:23.912Z,825
2016-08-04T07:43:25.363Z,820
2016-08-04T07:44:24.255Z,700
2016-08-04T07:45:22.633Z,590
2016-08-04T07:46:24.020Z,565
2016-08-04T07:47:23.079Z,605
2016-08-04T07:48:25.752Z,635
2016-08-04T07:49:24.190Z,650
2016-08-04T07:50:24.411Z,700
2016-08-04T07:52:26.573Z,790
2016-08-04T07:53:23.802Z,835
2016-08-04T07:54:23.983Z,830
2016-08-04T07:55:25.707Z,805
2016-08-04T07:56:26.755Z,770
2016-08-04T07:57:26.190Z,740
2016-08-04T07:58:25.335Z,740
2016-08-04T07:59:26.680Z,755
2016-08-04T08:00:26.452Z,765
2016-08-04T08:01:23.670Z,730
2016-08-04T08:02:25.315Z,665
2016-08-04T08:03:24.835Z,630
2016-08-04T08:04:24.844Z,630
2016-08-04T08:05:24.365Z,690
2016-08-04T08:07:26.091Z,905
2016-08-04T08:08:25.247Z,1060
2016-08-04T08:09:24.976Z,1220
2016-08-04T08:10:26.200Z,1350
2016-08-04T08:11:26.447Z,1515
2016-08-04T08:12:25.839Z,1500
2016-08-04T08:13:27.685Z,1500
2016-08-04T08:14:24.409Z,1480
2016-08-04T08:15:25.003Z,1475
2016-08-04T08:16:26.838Z,1510
2016-08-04T08:17:24.168Z,1590
2016-08-04T08:18:27.098Z,1905
2016-08-04T08:19:25.899Z,1640
2016-08-04T08:20:26.450Z,1725
2016-08-04T08:22:26.132Z,1860
2016-08-04T08:23:25.921Z,1880
2016-08-04T08:24:24.089Z,1715
2016-08-04T08:25:24.047Z,2000
2016-08-04T08:26:26.060Z,2190
2016-08-04T08:27:29.399Z,1940
2016-08-04T08:28:26.456Z,1950
2016-08-04T08:29:25.039Z,1675
2016-08-04T08:30:24.966Z,1800
2016-08-04T08:31:26.435Z,1750
2016-08-04T08:32:26.986Z,1875
2016-08-04T08:33:26.357Z,1840
2016-08-04T08:34:26.996Z,1770
2016-08-04T08:35:24.998Z,1485
2016-08-04T08:37:25.712Z,2065
2016-08-04T08:38:28.244Z,2205
2016-08-04T08:39:25.831Z,2330
2016-08-04T08:40:26.590Z,2360
2016-08-04T08:41:26.484Z,2270
2016-08-04T08:42:26.750Z,2530
2016-08-04T08:43:24.738Z,2650
2016-08-04T08:44:24.773Z,2505
2016-08-04T08:45:26.605Z,2650
2016-08-04T08:46:27.210Z,2665
2016-08-04T08:47:27.431Z,2980
2016-08-04T08:48:25.916Z,3245
2016-08-04T08:49:26.052Z,3350
2016-08-04T08:50:27.401Z,3410
2016-08-04T08:51:25.490Z,3310
2016-08-04T08:52:26.630Z,2795
2016-08-04T08:53:27.240Z,2225
2016-08-04T08:54:26.500Z,1720
2016-08-04T08:55:25.460Z,2610
2016-08-04T08:56:26.663Z,1440
2016-08-04T08:57:27.042Z,1415
2016-08-04T08:58:26.351Z,1475
2016-08-04T08:59:28.231Z,1480
2016-08-04T09:00:28.722Z,1445
2016-08-04T09:01:24.884Z,1435
2016-08-04T09:02:26.455Z,1445
2016-08-04T09:03:27.857Z,1490
2016-08-04T09:04:26.517Z,1445
2016-08-04T09:05:25.851Z,1665
2016-08-04T09:06:27.336Z,1550
2016-08-04T09:07:25.934Z,1605
2016-08-04T09:08:27.641Z,1715
2016-08-04T09:09:27.072Z,1500
2016-08-04T09:10:25.883Z,1565
2016-08-04T09:11:26.233Z,1795
2016-08-04T09:12:25.539Z,1670
2016-08-04T09:13:25.897Z,1870
2016-08-04T09:14:24.605Z,1815
2016-08-04T09:15:26.086Z,1720
2016-08-04T09:16:24.750Z,1620
2016-08-04T09:17:26.444Z,1640
2016-08-04T09:18:25.342Z,1590
2016-08-04T09:19:26.355Z,1520
2016-08-04T09:20:29.172Z,1705
2016-08-04T09:21:26.977Z,1660
2016-08-04T09:22:26.330Z,1805
2016-08-04T09:23:27.021Z,2055
2016-08-04T09:24:27.200Z,2280
2016-08-04T09:25:27.373Z,1995
2016-08-04T09:26:27.475Z,2830
2016-08-04T09:27:26.373Z,2415
2016-08-04T09:28:26.679Z,2485
2016-08-04T09:29:27.236Z,2295
2016-08-04T09:30:27.431Z,3280
2016-08-04T09:31:28.401Z,2485
2016-08-04T09:32:27.460Z,2770
2016-08-04T09:33:27.160Z,3050
2016-08-04T09:34:26.519Z,2345
2016-08-04T09:35:28.643Z,2790
2016-08-04T09:36:27.758Z,2615
2016-08-04T09:37:28.515Z,1600
2016-08-04T09:38:26.729Z,1440
2016-08-04T09:39:29.318Z,1445
2016-08-04T09:40:28.259Z,1295
2016-08-04T09:41:28.172Z,1230
2016-08-04T09:42:27.893Z,1170
2016-08-04T09:43:26.627Z,1275
2016-08-04T09:44:27.549Z,1300
2016-08-04T09:45:27.143Z,1320
2016-08-04T09:46:28.581Z,1365
2016-08-04T09:47:29.270Z,1600
2016-08-04T09:48:28.575Z,2125
2016-08-04T09:49:26.903Z,2000
2016-08-04T09:50:29.118Z,2225
2016-08-04T09:51:30.212Z,1965
2016-08-04T09:52:28.001Z,1850
2016-08-04T09:53:27.571Z,2545
2016-08-04T09:54:26.984Z,2385
2016-08-04T09:55:28.003Z,2135
2016-08-04T09:56:28.564Z,2175
2016-08-04T09:57:28.641Z,1930
2016-08-04T09:58:28.520Z,1975
2016-08-04T09:59:30.208Z,1735
2016-08-04T10:00:28.758Z,1610
2016-08-04T10:01:27.310Z,1560
2016-08-04T10:02:26.895Z,1520
2016-08-04T10:03:29.980Z,1405
2016-08-04T10:04:28.006Z,1325
2016-08-04T10:05:29.097Z,1260
2016-08-04T10:06:29.424Z,1225
2016-08-04T10:07:28.048Z,1240
2016-08-04T10:08:28.771Z,1245
2016-08-04T10:09:28.357Z,1210
2016-08-04T10:10:27.467Z,1180
2016-08-04T10:11:27.163Z,1170
2016-08-04T10:12:27.424Z,1150
2016-08-04T10:13:29.229Z,1100
2016-08-04T10:14:29.312Z,1065
2016-08-04T10:15:29.428Z,1070
2016-08-04T10:16:27.434Z,1095
2016-08-04T10:17:29.302Z,1145
2016-08-04T10:18:31.307Z,1200
2016-08-04T10:19:30.049Z,1265
2016-08-04T10:20:29.316Z,1320
2016-08-04T10:21:31.097Z,1365
2016-08-04T10:22:28.683Z,1445
2016-08-04T10:23:29.444Z,1515
2016-08-04T10:24:30.148Z,1575
2016-08-04T10:25:28.839Z,1530
2016-08-04T10:26:28.463Z,1590
2016-08-04T10:27:28.391Z,1610
2016-08-04T10:28:29.021Z,1690
2016-08-04T10:29:29.656Z,1710
2016-08-04T10:30:30.129Z,1590
2016-08-04T10:31:29.509Z,1485
2016-08-04T10:32:27.704Z,1410
2016-08-04T10:33:29.728Z,1440
2016-08-04T10:34:27.237Z,1585
2016-08-04T10:35:30.940Z,1515
2016-08-04T10:36:29.516Z,1530
2016-08-04T10:37:29.477Z,1440
2016-08-04T10:38:28.739Z,1480
2016-08-04T10:39:29.448Z,1570
2016-08-04T10:40:31.291Z,1900
2016-08-04T10:41:31.114Z,2235
2016-08-04T10:42:28.704Z,2370
2016-08-04T10:43:28.630Z,2275
2016-08-04T10:44:29.448Z,2350
2016-08-04T10:45:28.925Z,2400
2016-08-04T10:46:31.371Z,2490
2016-08-04T10:47:29.290Z,2745
2016-08-04T10:48:29.690Z,2490
2016-08-04T10:49:30.410Z,2380
2016-08-04T10:50:31.127Z,2220
2016-08-04T10:51:30.536Z,1950
2016-08-04T10:52:31.064Z,2260
2016-08-04T10:53:29.208Z,2170
2016-08-04T10:54:31.221Z,2160
2016-08-04T10:55:31.078Z,2430
2016-08-04T10:56:29.710Z,3065
2016-08-04T10:57:28.691Z,2900
2016-08-04T10:58:29.528Z,2665
2016-08-04T10:59:31.928Z,2170
2016-08-04T11:00:29.334Z,2520
2016-08-04T11:01:30.259Z,2840
2016-08-04T11:02:31.434Z,3135
2016-08-04T11:03:30.872Z,2970
2016-08-04T11:04:30.441Z,2870
2016-08-04T11:05:29.713Z,2525
2016-08-04T11:06:32.156Z,1940
2016-08-04T11:07:29.397Z,3380
2016-08-04T11:08:31.250Z,1840
2016-08-04T11:09:31.389Z,2000
2016-08-04T11:10:31.787Z,1900
2016-08-04T11:11:29.958Z,2780
2016-08-04T11:12:31.408Z,2745
2016-08-04T11:13:30.167Z,2395
2016-08-04T11:14:30.932Z,2515
2016-08-04T11:15:31.157Z,2485
2016-08-04T11:16:29.801Z,2770
2016-08-04T11:17:29.564Z,2460
2016-08-04T11:18:31.072Z,2855
2016-08-04T11:19:31.914Z,2925
2016-08-04T11:20:31.491Z,2435
2016-08-04T11:21:31.695Z,2085
2016-08-04T11:22:31.199Z,2265
2016-08-04T11:23:28.725Z,1760
2016-08-04T11:24:31.145Z,2475
2016-08-04T11:25:31.229Z,3405
2016-08-04T11:26:32.254Z,2735
2016-08-04T11:27:31.660Z,2465
2016-08-04T11:28:30.875Z,2445
2016-08-04T11:29:31.714Z,2715
2016-08-04T11:30:32.549Z,3055
2016-08-04T11:31:30.200Z,2780
2016-08-04T11:32:30.080Z,2805
2016-08-04T11:33:31.524Z,2245
2016-08-04T11:34:31.131Z,2660
2016-08-04T11:35:31.012Z,2650
2016-08-04T11:36:31.965Z,1935
2016-08-04T11:37:31.487Z,1585
2016-08-04T11:38:30.773Z,1480
2016-08-04T11:39:30.657Z,1470
2016-08-04T11:40:31.250Z,1450
2016-08-04T11:41:32.923Z,1425
2016-08-04T11:42:32.847Z,1470
2016-08-04T11:43:31.359Z,1505
2016-08-04T11:44:31.917Z,1410
2016-08-04T11:45:31.669Z,1505
2016-08-04T11:46:31.638Z,1560
2016-08-04T11:47:32.413Z,1575
2016-08-04T11:48:34.302Z,1585
2016-08-04T11:49:32.561Z,1680
2016-08-04T11:50:31.692Z,1770
2016-08-04T11:51:31.426Z,1775
2016-08-04T11:52:31.988Z,1775
2016-08-04T11:53:32.924Z,1740
2016-08-04T11:54:30.968Z,1975
2016-08-04T11:55:30.158Z,2170
2016-08-04T11:56:31.882Z,2235
2016-08-04T11:57:32.258Z,2195
2016-08-04T11:58:30.426Z,1770
2016-08-04T11:59:32.497Z,1815
2016-08-04T12:00:32.094Z,1875
2016-08-04T12:01:33.710Z,2220
2016-08-04T12:02:33.727Z,2440
2016-08-04T12:03:33.290Z,1750
2016-08-04T12:04:31.725Z,1535
2016-08-04T12:05:33.220Z,1420
2016-08-04T12:06:32.628Z,1400
2016-08-04T12:07:32.417Z,1490
2016-08-04T12:08:34.428Z,1970
2016-08-04T12:09:32.200Z,1685
2016-08-04T12:10:31.756Z,2035
2016-08-04T12:11:31.339Z,2630
2016-08-04T12:12:35.646Z,2195
2016-08-04T12:13:34.382Z,2005
2016-08-04T12:14:31.197Z,1970
2016-08-04T12:15:31.756Z,2305
2016-08-04T12:16:34.623Z,2515
2016-08-04T12:17:33.565Z,3340
2016-08-04T12:18:33.236Z,3060
2016-08-04T12:19:32.963Z,2320
2016-08-04T12:20:32.484Z,2245
2016-08-04T12:21:33.069Z,1970
2016-08-04T12:22:32.656Z,1950
2016-08-04T12:23:33.264Z,2735
2016-08-04T12:24:33.730Z,2045
2016-08-04T12:25:33.580Z,2060
2016-08-04T12:26:34.427Z,2270
2016-08-04T12:27:32.871Z,2005
2016-08-04T12:28:33.794Z,2380
2016-08-04T12:29:32.588Z,1810
2016-08-04T12:30:34.436Z,3645
2016-08-04T12:31:33.130Z,1710
2016-08-04T12:32:32.733Z,1735
2016-08-04T12:33:31.414Z,1740
2016-08-04T12:34:34.427Z,1820
2016-08-04T12:35:34.213Z,2200
2016-08-04T12:36:33.316Z,2220
2016-08-04T12:37:35.604Z,1790
2016-08-04T12:38:33.430Z,2215
2016-08-04T12:39:35.787Z,1670
2016-08-04T12:40:32.638Z,1670
2016-08-04T12:41:32.733Z,2120
2016-08-04T12:42:33.086Z,1630
2016-08-04T12:43:34.920Z,1605
2016-08-04T12:44:34.352Z,1510
2016-08-04T12:45:35.221Z,1630
2016-08-04T12:46:33.823Z,1780
2016-08-04T12:47:33.254Z,1855
2016-08-04T12:48:36.023Z,1960
2016-08-04T12:49:33.004Z,1765
2016-08-04T12:50:32.941Z,1840
2016-08-04T12:51:34.888Z,1765
2016-08-04T12:53:33.893Z,2200
2016-08-04T12:54:33.357Z,2020
2016-08-04T12:55:34.675Z,2045
2016-08-04T12:56:35.191Z,2120
2016-08-04T12:57:34.085Z,2280
2016-08-04T12:58:35.042Z,2435
2016-08-04T12:59:34.519Z,2195
2016-08-04T13:00:35.890Z,2455
2016-08-04T13:01:34.604Z,2025
2016-08-04T13:02:33.928Z,1880
2016-08-04T13:03:33.609Z,1560
2016-08-04T13:04:35.149Z,1650
2016-08-04T13:05:34.993Z,2435
2016-08-04T13:06:36.932Z,2420
2016-08-04T13:08:34.955Z,1900
2016-08-04T13:09:35.112Z,2110
2016-08-04T13:10:35.941Z,1790
2016-08-04T13:11:35.937Z,1790
2016-08-04T13:12:35.404Z,1970
2016-08-04T13:13:36.107Z,2155
2016-08-04T13:14:33.583Z,2240
2016-08-04T13:15:33.980Z,2310
2016-08-04T13:16:33.765Z,1855
2016-08-04T13:17:35.353Z,1605
2016-08-04T13:18:34.312Z,1610
2016-08-04T13:19:36.698Z,1545
2016-08-04T13:20:34.876Z,1405
2016-08-04T13:21:35.381Z,1315
2016-08-04T13:22:34.024Z,1395
2016-08-04T13:23:34.881Z,1770
2016-08-04T13:24:38.475Z,1545
2016-08-04T13:25:36.832Z,1610
2016-08-04T13:26:34.850Z,2275
2016-08-04T13:27:34.865Z,2245
2016-08-04T13:28:33.950Z,2200
2016-08-04T13:29:36.528Z,2100
2016-08-04T13:30:34.580Z,1530
2016-08-04T13:31:36.446Z,1370
2016-08-04T13:32:36.816Z,1335
2016-08-04T13:33:36.682Z,1455
2016-08-04T13:34:36.544Z,1455
2016-08-04T13:35:36.695Z,1405
2016-08-04T13:36:38.404Z,1395
2016-08-04T13:37:36.440Z,1390
2016-08-04T13:39:34.929Z,1725
2016-08-04T13:40:34.037Z,1810
2016-08-04T13:41:38.240Z,1735
2016-08-04T13:42:36.446Z,1690
2016-08-04T13:43:36.127Z,1755
2016-08-04T13:44:34.873Z,1730
2016-08-04T13:45:36.258Z,1685
2016-08-04T13:46:37.304Z,1585
2016-08-04T13:47:36.156Z,1570
2016-08-04T13:48:38.309Z,1530
2016-08-04T13:49:36.593Z,1555
2016-08-04T13:50:38.556Z,1660
2016-08-04T13:51:35.314Z,1705
2016-08-04T13:52:36.844Z,1820
2016-08-04T13:53:36.929Z,1830
2016-08-04T13:54:35.408Z,1835
2016-08-04T13:55:35.736Z,1770
2016-08-04T13:56:35.513Z,1765
2016-08-04T13:57:37.342Z,1620
2016-08-04T13:58:35.195Z,1485
2016-08-04T13:59:37.301Z,1415
2016-08-04T14:00:36.845Z,1380
2016-08-04T14:01:35.331Z,1325
2016-08-04T14:02:36.625Z,1265
2016-08-04T14:03:37.451Z,1225
2016-08-04T14:04:36.483Z,1155
2016-08-04T14:05:38.129Z,1100
2016-08-04T14:06:36.973Z,1115
2016-08-04T14:07:38.531Z,1140
2016-08-04T14:08:36.835Z,1160